Terminal Aerodrome Forecast
Issued by NWS Mt. Holly, NJ

Home | Current Version | Previous Version | Text Only | Print | Product List | Glossary On
Versions: 1 2 3 4 5 6 7 8 9 10 11 12 13 14 15 16 17 18 19 20
896
FTUS41 KPHI 270935 AAA
TAFRDG
TAF AMD
KRDG 270935Z 2710/2806 VRB03KT P6SM -SHRA OVC006
     FM271200 VRB04KT 4SM -SHRA BR OVC010
     FM271600 24004KT 6SM BR VCSH BKN020 OVC050
     FM272200 22006KT P6SM VCSH BKN050
     FM280400 VRB02KT 3SM BR BKN100=

USA.gov is the U.S. government's official web portal to all federal, state and local government web resources and services.